Time;durP1;ratioP1;P1;durP2;ratioP2;P2;SDS_P1;SDS_P2;PMS_P1;PMS_P2;Temp;Humidity;BMP_temperature;BMP_pressure;BME280_temperature;BME280_humidity;BME280_pressure;Samples;Min_cycle;Max_cycle;Signal;HPM_P1;HPM_P2
2022/12/16 00:00:12;;;;;;;17.77;11.10;;;;;;;18.09;38.76;99107.03;5032357;28;20196;-66
2022/12/16 00:02:38;;;;;;;22.57;12.13;;;;;;;18.02;37.63;99109.88;5037554;28;20776;-66
2022/12/16 00:05:03;;;;;;;18.27;12.60;;;;;;;17.98;37.10;99106.22;5057903;28;20440;-66
2022/12/16 00:07:29;;;;;;;23.60;14.23;;;;;;;18.00;36.71;99111.50;5033198;28;20191;-66
2022/12/16 00:09:54;;;;;;;26.47;15.07;;;;;;;18.07;37.29;99109.47;5036032;28;20175;-66
2022/12/16 00:12:20;;;;;;;22.87;13.20;;;;;;;18.28;38.46;99109.50;5052604;28;20191;-65
2022/12/16 00:14:45;;;;;;;20.07;12.10;;;;;;;18.39;38.38;99116.06;5032695;28;20593;-66
2022/12/16 00:17:11;;;;;;;19.03;11.70;;;;;;;18.21;38.91;99125.81;5047998;28;20586;-66
2022/12/16 00:19:36;;;;;;;20.23;10.83;;;;;;;18.26;39.16;99123.34;5053260;28;20514;-66
2022/12/16 00:22:02;;;;;;;16.97;10.00;;;;;;;18.21;39.53;99132.34;5036304;28;20207;-66
2022/12/16 00:24:30;;;;;;;18.80;10.10;;;;;;;18.28;39.71;99148.66;5035002;28;20180;-66
2022/12/16 00:26:58;;;;;;;20.83;9.60;;;;;;;18.28;40.29;99146.66;5051192;28;20184;-66
2022/12/16 00:29:23;;;;;;;15.03;9.60;;;;;;;18.46;40.24;99156.06;5035538;28;20427;-66
2022/12/16 00:31:48;;;;;;;14.33;9.00;;;;;;;18.57;40.71;99153.22;5032675;28;20687;-66
2022/12/16 00:34:14;;;;;;;15.20;9.87;;;;;;;18.46;40.77;99153.19;5034644;28;20181;-65
2022/12/16 00:36:40;;;;;;;13.47;8.30;;;;;;;18.27;41.41;99152.75;5033877;28;20291;-66
2022/12/16 00:39:05;;;;;;;13.87;9.30;;;;;;;18.23;42.12;99164.19;5047238;28;20616;-66
2022/12/16 00:41:31;;;;;;;12.67;8.20;;;;;;;18.27;41.90;99164.97;5042811;28;20286;-66
2022/12/16 00:43:56;;;;;;;14.10;8.30;;;;;;;18.30;42.10;99180.50;5032473;28;20195;-66
2022/12/16 00:46:22;;;;;;;16.40;7.97;;;;;;;18.27;42.57;99162.13;5044262;28;20187;-65
2022/12/16 00:48:47;;;;;;;13.17;8.37;;;;;;;18.31;42.62;99171.53;5072605;28;20201;-66
2022/12/16 00:51:13;;;;;;;15.03;8.10;;;;;;;18.25;42.99;99184.59;5053479;28;20156;-66
2022/12/16 00:53:38;;;;;;;11.90;7.70;;;;;;;18.26;43.27;99179.69;5037193;28;20183;-65
2022/12/16 00:56:08;;;;;;;12.20;8.03;;;;;;;18.20;43.35;99179.28;5035019;28;20180;-66
2022/12/16 00:58:33;;;;;;;13.10;7.60;;;;;;;18.18;43.88;99169.47;5053575;28;20542;-66
2022/12/16 01:00:59;;;;;;;9.47;6.67;;;;;;;18.16;43.81;99180.50;5037816;28;20433;-66
2022/12/16 01:03:24;;;;;;;10.13;6.40;;;;;;;18.20;43.77;99179.28;5053170;28;20232;-66
2022/12/16 01:05:50;;;;;;;10.90;6.80;;;;;;;18.23;44.28;99178.47;5053405;28;20191;-66
2022/12/16 01:08:15;;;;;;;12.17;7.00;;;;;;;18.22;44.15;99179.66;5052943;28;20172;-66
2022/12/16 01:10:41;;;;;;;9.60;6.20;;;;;;;18.25;44.26;99176.00;5057596;28;20195;-66
2022/12/16 01:13:06;;;;;;;9.53;7.10;;;;;;;18.23;44.13;99172.75;5072468;28;20163;-66
2022/12/16 01:15:32;;;;;;;12.10;7.33;;;;;;;18.24;44.14;99177.25;5053116;28;20189;-66
2022/12/16 01:17:57;;;;;;;11.23;7.30;;;;;;;18.19;44.41;99182.53;5053601;28;20215;-66
2022/12/16 01:20:23;;;;;;;11.83;7.10;;;;;;;18.18;44.80;99184.59;5052853;28;20176;-66
2022/12/16 01:22:48;;;;;;;12.23;7.07;;;;;;;18.17;44.88;99196.41;5040139;28;20188;-66
2022/12/16 01:25:14;;;;;;;12.97;7.33;;;;;;;18.18;44.85;99193.16;5034377;28;20213;-66
2022/12/16 01:27:39;;;;;;;10.17;6.23;;;;;;;18.21;44.91;99197.25;5036480;28;20845;-66
2022/12/16 01:30:05;;;;;;;11.13;6.53;;;;;;;18.23;45.06;99197.63;5034604;28;20570;-66
2022/12/16 01:32:31;;;;;;;8.90;6.33;;;;;;;18.21;45.23;99198.03;5034097;28;20176;-67
2022/12/16 01:34:57;;;;;;;11.70;6.87;;;;;;;18.19;45.08;99209.06;5044643;28;20792;-66
2022/12/16 01:37:23;;;;;;;7.90;6.00;;;;;;;18.15;44.86;99211.09;5071662;28;20198;-66
2022/12/16 01:39:48;;;;;;;9.40;6.20;;;;;;;18.16;45.44;99221.28;5068643;28;20446;-67
2022/12/16 01:42:18;;;;;;;13.43;6.20;;;;;;;18.20;45.06;99215.59;5064367;28;20168;-66
2022/12/16 01:44:45;;;;;;;9.97;5.93;;;;;;;18.21;45.18;99226.59;5034759;28;20156;-66
2022/12/16 01:47:19;;;;;;;10.30;6.33;;;;;;;18.27;45.03;99218.47;5063873;28;21203;-66
2022/12/16 01:50:00;;;;;;;8.73;6.17;;;;;;;18.27;45.70;99221.31;5072668;28;20483;-65
2022/12/16 01:52:28;;;;;;;8.60;5.53;;;;;;;18.24;45.42;99228.66;5050354;28;20944;-66
2022/12/16 01:55:02;;;;;;;11.63;6.40;;;;;;;18.32;45.53;99224.63;5054592;28;20884;-66
2022/12/16 01:57:35;;;;;;;11.40;6.50;;;;;;;18.30;45.53;99229.91;5053718;28;20464;-66
2022/12/16 02:00:00;;;;;;;9.33;5.77;;;;;;;18.31;45.56;99231.53;5038913;28;20831;-66
2022/12/16 02:02:26;;;;;;;10.53;5.43;;;;;;;18.31;45.43;99242.16;5029472;28;20459;-66
2022/12/16 02:07:36;;;;;;;8.70;6.17;;;;;;;18.26;45.59;99242.56;5039316;28;20191;-66
2022/12/16 02:10:03;;;;;;;10.83;6.00;;;;;;;18.22;45.72;99241.72;5052170;28;20430;-66
2022/12/16 02:12:31;;;;;;;8.73;5.80;;;;;;;18.19;45.84;99234.78;5034308;28;20422;-66
2022/12/16 02:15:15;;;;;;;8.60;5.30;;;;;;;18.17;46.07;99244.97;5051917;28;20441;-66
2022/12/16 02:17:54;;;;;;;10.47;6.10;;;;;;;18.20;45.63;99247.00;5052466;28;20470;-65
2022/12/16 02:21:01;;;;;;;9.30;5.40;;;;;;;18.16;46.26;99249.84;5035749;28;20876;-66
2022/12/16 02:23:49;;;;;;;8.30;5.47;;;;;;;18.15;46.29;99242.50;5053668;28;20442;-66
2022/12/16 02:26:14;;;;;;;10.83;5.70;;;;;;;18.13;46.14;99253.53;5018686;28;20499;-66
2022/12/16 02:29:07;;;;;;;9.87;5.47;;;;;;;18.16;45.98;99251.91;5054056;28;21031;-65
2022/12/16 02:31:53;;;;;;;8.30;5.60;;;;;;;18.12;46.17;99254.75;5051717;28;20167;-66
2022/12/16 02:34:22;;;;;;;7.87;5.50;;;;;;;18.13;46.09;99250.69;5039689;28;20535;-66
2022/12/16 02:37:12;;;;;;;8.60;4.90;;;;;;;18.17;46.35;99256.41;5053192;28;20480;-66
2022/12/16 02:39:38;;;;;;;8.47;5.40;;;;;;;18.07;46.31;99254.31;5067255;28;20928;-66
2022/12/16 02:42:10;;;;;;;7.57;4.77;;;;;;;18.09;46.48;99254.72;5029501;28;20454;-65
2022/12/16 02:45:06;;;;;;;7.67;5.40;;;;;;;18.10;46.38;99274.31;4997415;28;21037;-65
2022/12/16 02:47:32;;;;;;;6.73;5.47;;;;;;;18.09;46.49;99264.13;5061848;28;20457;-66
2022/12/16 02:49:57;;;;;;;9.63;5.23;;;;;;;18.13;46.34;99267.00;5070561;28;20405;-66
2022/12/16 02:52:25;;;;;;;7.07;5.47;;;;;;;18.10;46.64;99274.31;5027891;28;20207;-65
2022/12/16 02:54:53;;;;;;;8.60;5.40;;;;;;;18.14;46.83;99272.31;5033703;28;20646;-65
2022/12/16 02:57:39;;;;;;;11.73;5.90;;;;;;;18.15;46.71;99281.69;5017285;28;20449;-65
2022/12/16 03:00:11;;;;;;;6.03;4.53;;;;;;;18.12;46.48;99286.16;5023048;28;20449;-66
2022/12/16 03:02:46;;;;;;;6.57;4.70;;;;;;;18.16;46.58;99294.75;5017500;28;20466;-66
2022/12/16 03:05:15;;;;;;;8.13;4.90;;;;;;;18.10;46.54;99291.47;5046847;28;20441;-66
2022/12/16 03:07:41;;;;;;;8.20;5.17;;;;;;;18.12;46.62;99289.00;5037268;28;20423;-65
2022/12/16 03:10:09;;;;;;;8.50;5.03;;;;;;;18.10;46.44;99291.47;5015964;28;20445;-65
2022/12/16 03:12:34;;;;;;;9.00;5.27;;;;;;;18.19;46.61;99289.06;5028525;28;20222;-66
2022/12/16 03:15:00;;;;;;;7.90;4.97;;;;;;;18.16;46.65;99301.28;5013728;28;20427;-66
2022/12/16 03:17:25;;;;;;;8.93;4.60;;;;;;;18.20;46.45;99299.25;5018058;28;20349;-66
2022/12/16 03:19:56;;;;;;;7.10;4.77;;;;;;;18.17;46.56;99294.34;5015948;28;20172;-65
2022/12/16 03:22:24;;;;;;;6.83;4.77;;;;;;;18.15;46.72;99299.66;5041745;28;20644;-66
2022/12/16 03:24:49;;;;;;;7.80;5.43;;;;;;;18.13;46.79;99306.97;5013235;28;20443;-65
2022/12/16 03:27:41;;;;;;;6.77;5.00;;;;;;;18.08;46.96;99308.19;5031951;28;20447;-65
2022/12/16 03:30:08;;;;;;;6.30;4.87;;;;;;;18.09;46.73;99306.16;4997482;28;20180;-65
2022/12/16 03:33:00;;;;;;;7.43;4.93;;;;;;;18.11;46.75;99313.09;5012802;28;20420;-66
2022/12/16 03:35:33;;;;;;;7.57;5.13;;;;;;;18.07;46.85;99314.31;5033150;28;20392;-66
2022/12/16 03:37:58;;;;;;;8.00;5.23;;;;;;;18.05;46.91;99317.56;5055168;28;20515;-65
2022/12/16 03:40:24;;;;;;;6.50;4.90;;;;;;;18.08;47.23;99311.06;5036681;28;20414;-65
2022/12/16 03:42:51;;;;;;;9.00;5.93;;;;;;;18.01;47.01;99311.00;5038865;28;20189;-65
2022/12/16 03:45:19;;;;;;;7.37;4.67;;;;;;;18.03;46.94;99314.31;5036905;28;20176;-65
2022/12/16 03:47:49;;;;;;;6.70;4.70;;;;;;;18.03;47.22;99313.47;5037018;28;20394;-65
2022/12/16 03:50:15;;;;;;;7.57;4.90;;;;;;;18.08;46.75;99319.63;5036732;28;20406;-65
2022/12/16 03:52:40;;;;;;;8.00;4.40;;;;;;;18.05;46.81;99313.88;5061391;28;20762;-65
2022/12/16 03:55:06;;;;;;;6.33;3.93;;;;;;;18.07;46.84;99320.81;5074504;28;20224;-65
2022/12/16 03:57:31;;;;;;;6.23;4.03;;;;;;;18.08;46.90;99321.66;5062904;28;20282;-65
2022/12/16 03:59:57;;;;;;;6.47;4.60;;;;;;;18.08;47.04;99325.34;5054337;28;20173;-65
2022/12/16 04:02:22;;;;;;;9.70;4.80;;;;;;;18.01;47.12;99325.28;5064401;28;20191;-65
2022/12/16 04:04:48;;;;;;;6.20;4.47;;;;;;;18.01;46.85;99325.28;5057142;28;20183;-65
2022/12/16 04:07:19;;;;;;;7.87;4.90;;;;;;;18.04;46.81;99327.34;5036713;28;20171;-65
2022/12/16 04:09:45;;;;;;;7.00;4.10;;;;;;;18.00;47.21;99334.25;5054196;28;20167;-65
2022/12/16 04:25:53;;;;;;;6.73;4.40;;;;;;;18.11;47.04;99350.22;5074169;28;20742;-65
2022/12/16 04:28:18;;;;;;;6.63;4.67;;;;;;;18.09;46.82;99357.56;5055898;28;20409;-66
2022/12/16 04:30:43;;;;;;;6.07;4.60;;;;;;;18.02;47.07;99364.03;5056102;28;20184;-65
